Time;durP1;ratioP1;P1;durP2;ratioP2;P2;SDS_P1;SDS_P2;PMS_P1;PMS_P2;Temp;Humidity;BMP_temperature;BMP_pressure;BME280_temperature;BME280_humidity;BME280_pressure;Samples;Min_cycle;Max_cycle;Signal;HPM_P1;HPM_P2
2023/06/18 00:00:42;;;;;;;13.37;11.90;;;17.70;95.70;;;;;;5034389;28;20449;-59
2023/06/18 00:03:09;;;;;;;12.77;11.57;;;17.70;96.00;;;;;;5033468;28;20445;-58
2023/06/18 00:05:37;;;;;;;12.03;10.93;;;17.60;96.10;;;;;;5033341;28;20965;-59
2023/06/18 00:08:05;;;;;;;13.07;11.63;;;17.60;96.60;;;;;;5033432;28;20449;-60
2023/06/18 00:10:32;;;;;;;12.13;10.83;;;17.60;96.70;;;;;;5033439;28;20453;-60
2023/06/18 00:12:59;;;;;;;14.03;11.37;;;17.60;96.90;;;;;;5033488;28;20449;-59
2023/06/18 00:15:26;;;;;;;12.17;10.97;;;17.60;97.20;;;;;;5033477;28;20977;-59
2023/06/18 00:17:52;;;;;;;12.90;11.50;;;17.50;97.30;;;;;;5033509;28;21006;-59
2023/06/18 00:20:19;;;;;;;12.60;11.00;;;17.50;97.50;;;;;;5033712;28;20449;-58
2023/06/18 00:22:48;;;;;;;14.40;11.50;;;17.50;97.70;;;;;;5033631;28;20950;-58
2023/06/18 00:25:15;;;;;;;13.40;12.10;;;17.50;97.80;;;;;;5033881;28;20792;-58
2023/06/18 00:27:42;;;;;;;13.93;12.47;;;17.50;97.80;;;;;;5035953;28;20969;-59
2023/06/18 00:30:09;;;;;;;12.73;11.20;;;17.50;97.80;;;;;;5037352;28;20935;-58
2023/06/18 00:32:36;;;;;;;14.70;13.20;;;17.50;98.00;;;;;;5037987;28;20456;-59
2023/06/18 00:35:04;;;;;;;14.23;12.77;;;17.50;98.10;;;;;;5037175;28;20556;-60
2023/06/18 00:37:31;;;;;;;13.90;12.17;;;17.40;98.20;;;;;;5037907;28;20552;-59
2023/06/18 00:39:59;;;;;;;17.40;13.43;;;17.40;98.40;;;;;;5036922;28;20449;-59
2023/06/18 00:42:28;;;;;;;13.30;11.73;;;17.40;98.70;;;;;;5037539;28;20445;-62
2023/06/18 00:44:55;;;;;;;14.00;12.57;;;17.30;98.90;;;;;;5037271;28;20986;-60
2023/06/18 00:47:23;;;;;;;12.77;11.43;;;17.30;99.10;;;;;;5037997;28;20459;-59
2023/06/18 00:49:51;;;;;;;13.93;12.43;;;17.30;99.30;;;;;;5039816;28;20445;-60
2023/06/18 00:52:23;;;;;;;14.10;12.70;;;17.30;99.50;;;;;;5038771;28;20453;-59
2023/06/18 00:54:51;;;;;;;13.80;12.20;;;17.30;99.60;;;;;;5037123;28;20481;-60
2023/06/18 00:57:21;;;;;;;14.27;12.97;;;17.20;99.60;;;;;;5036928;28;20481;-60
2023/06/18 00:59:51;;;;;;;13.63;11.90;;;17.20;99.80;;;;;;5037197;28;20483;-59
2023/06/18 01:02:23;;;;;;;14.60;13.10;;;17.20;99.90;;;;;;5037084;28;20479;-59
2023/06/18 01:04:53;;;;;;;12.60;11.30;;;17.10;99.90;;;;;;5072666;22;20499;-59
2023/06/18 01:07:20;;;;;;;14.07;12.67;;;17.10;99.90;;;;;;5055760;28;20922;-60
2023/06/18 01:09:53;;;;;;;15.87;11.40;;;17.10;99.90;;;;;;5055929;28;20451;-61
2023/06/18 01:12:22;;;;;;;15.13;10.97;;;17.00;99.90;;;;;;5056354;28;20435;-60
2023/06/18 01:14:51;;;;;;;11.87;10.67;;;17.00;99.90;;;;;;5056053;28;20471;-62
2023/06/18 01:17:20;;;;;;;14.07;12.00;;;17.00;99.90;;;;;;5056175;28;20487;-60
2023/06/18 01:19:49;;;;;;;13.70;12.37;;;16.90;99.90;;;;;;5055858;28;20467;-60
2023/06/18 01:22:26;;;;;;;14.67;11.80;;;16.90;99.90;;;;;;5056235;28;20452;-59
2023/06/18 01:24:56;;;;;;;14.00;12.73;;;16.80;99.90;;;;;;5055977;28;20459;-61
2023/06/18 01:27:25;;;;;;;14.30;12.03;;;16.80;99.90;;;;;;5055789;28;20448;-61
2023/06/18 01:29:52;;;;;;;13.70;12.30;;;16.80;99.90;;;;;;5055993;28;20454;-61
2023/06/18 01:32:21;;;;;;;14.70;13.20;;;16.70;99.90;;;;;;5056318;28;20452;-60
2023/06/18 01:34:48;;;;;;;13.23;11.93;;;16.60;99.90;;;;;;5055645;28;20888;-61
2023/06/18 01:37:28;;;;;;;14.20;12.27;;;16.60;99.90;;;;;;5055763;28;20517;-60
2023/06/18 01:40:05;;;;;;;14.50;13.10;;;16.60;99.90;;;;;;5054956;28;20436;-60
2023/06/18 01:42:37;;;;;;;14.20;12.80;;;16.60;99.90;;;;;;5055594;28;20906;-61
2023/06/18 01:45:09;;;;;;;13.20;11.97;;;16.50;99.90;;;;;;5055733;28;20468;-61
2023/06/18 01:47:37;;;;;;;15.90;11.93;;;16.50;99.90;;;;;;5055587;28;20424;-60
2023/06/18 01:50:05;;;;;;;13.83;12.30;;;16.50;99.90;;;;;;5055191;28;20963;-61
2023/06/18 01:52:35;;;;;;;14.87;12.50;;;16.50;99.90;;;;;;5055039;28;20968;-60
2023/06/18 01:55:03;;;;;;;14.53;12.13;;;16.40;99.90;;;;;;5055250;28;20475;-61
2023/06/18 01:57:33;;;;;;;13.37;12.13;;;16.40;99.90;;;;;;5055276;28;20847;-60
2023/06/18 02:00:00;;;;;;;12.90;11.70;;;16.50;99.90;;;;;;5055322;28;20440;-60
2023/06/18 02:02:26;;;;;;;14.07;12.60;;;16.50;99.90;;;;;;5055198;28;20448;-61
2023/06/18 02:04:53;;;;;;;15.53;13.63;;;16.40;99.90;;;;;;5055051;28;20472;-61
2023/06/18 02:07:20;;;;;;;14.23;12.83;;;16.40;99.90;;;;;;5055228;28;21004;-61
2023/06/18 02:09:47;;;;;;;15.03;13.17;;;16.40;99.90;;;;;;5055622;28;20806;-61
2023/06/18 02:12:14;;;;;;;16.67;13.20;;;16.40;99.90;;;;;;5055159;28;20452;-61
2023/06/18 02:14:42;;;;;;;15.30;13.53;;;16.30;99.90;;;;;;5054922;28;20468;-60
2023/06/18 02:17:10;;;;;;;15.07;13.50;;;16.30;99.90;;;;;;5054837;28;20480;-58
2023/06/18 02:19:37;;;;;;;15.67;14.20;;;16.20;99.90;;;;;;5054841;28;20470;-59
2023/06/18 02:22:04;;;;;;;16.00;14.50;;;16.20;99.90;;;;;;5054943;28;20547;-61
2023/06/18 02:24:32;;;;;;;15.20;13.50;;;16.10;99.90;;;;;;5055085;28;20525;-61
2023/06/18 02:26:59;;;;;;;15.77;13.87;;;16.10;99.90;;;;;;5055511;28;20440;-60
2023/06/18 02:29:26;;;;;;;16.27;14.57;;;16.00;99.90;;;;;;5054472;28;20452;-61
2023/06/18 02:31:54;;;;;;;16.97;14.80;;;16.10;99.90;;;;;;5055276;28;20522;-60
2023/06/18 02:34:27;;;;;;;16.47;14.30;;;16.00;99.90;;;;;;5054801;28;20468;-60
2023/06/18 02:36:54;;;;;;;16.03;14.33;;;16.00;99.90;;;;;;5054583;28;20842;-59
2023/06/18 02:39:21;;;;;;;19.07;14.90;;;15.90;99.90;;;;;;5054425;28;20795;-60
2023/06/18 02:41:48;;;;;;;17.37;15.67;;;15.90;99.90;;;;;;5055688;28;20448;-60
2023/06/18 02:44:14;;;;;;;17.43;14.73;;;15.90;99.90;;;;;;5054466;28;20464;-60
2023/06/18 02:46:41;;;;;;;18.47;16.63;;;15.90;99.90;;;;;;5053993;28;20950;-59
2023/06/18 02:49:09;;;;;;;17.83;16.10;;;15.90;99.90;;;;;;5054023;28;20452;-60
2023/06/18 02:51:37;;;;;;;16.70;14.83;;;15.90;99.90;;;;;;5053072;28;20448;-60
2023/06/18 02:54:04;;;;;;;17.17;15.40;;;15.90;99.90;;;;;;5054163;28;20472;-61
2023/06/18 02:56:30;;;;;;;17.70;15.77;;;16.00;99.90;;;;;;5054931;28;20451;-60
2023/06/18 02:58:57;;;;;;;19.93;14.40;;;16.00;99.90;;;;;;5054611;28;20954;-60
2023/06/18 03:01:24;;;;;;;17.70;15.90;;;16.00;99.90;;;;;;5054118;28;20957;-60
2023/06/18 03:03:51;;;;;;;17.40;15.17;;;16.10;99.90;;;;;;5054012;28;20533;-61
2023/06/18 03:06:19;;;;;;;18.53;15.20;;;16.10;99.90;;;;;;5054311;28;20455;-61
2023/06/18 03:08:46;;;;;;;17.70;15.80;;;16.10;99.90;;;;;;5054847;28;20451;-61
2023/06/18 03:11:13;;;;;;;17.33;14.40;;;16.10;99.90;;;;;;5054293;28;20444;-60
2023/06/18 03:13:40;;;;;;;17.63;14.23;;;16.10;99.90;;;;;;5054082;28;20464;-61
2023/06/18 03:16:07;;;;;;;16.60;15.00;;;16.10;99.90;;;;;;5054097;28;20462;-60
2023/06/18 03:18:34;;;;;;;15.97;14.37;;;16.10;99.90;;;;;;5053693;28;20993;-60
2023/06/18 03:21:01;;;;;;;16.07;14.33;;;16.00;99.90;;;;;;5053889;28;20444;-60
2023/06/18 03:23:29;;;;;;;16.40;14.67;;;16.10;99.90;;;;;;5053631;28;20443;-60
2023/06/18 03:25:56;;;;;;;20.73;15.53;;;16.10;99.90;;;;;;5053660;28;20452;-59
2023/06/18 03:28:24;;;;;;;17.80;14.10;;;16.10;99.90;;;;;;5053888;28;20444;-60
2023/06/18 03:30:51;;;;;;;14.80;13.40;;;16.10;99.90;;;;;;5053622;28;20448;-60
2023/06/18 03:33:18;;;;;;;14.90;13.40;;;16.10;99.90;;;;;;5053511;28;20818;-60
2023/06/18 03:35:46;;;;;;;14.53;12.97;;;16.10;99.90;;;;;;5053482;28;20444;-59
2023/06/18 03:38:13;;;;;;;14.40;13.00;;;16.20;99.90;;;;;;5053394;28;20502;-60
2023/06/18 03:40:41;;;;;;;16.03;14.33;;;16.20;99.90;;;;;;5053873;28;20475;-60
2023/06/18 03:43:08;;;;;;;14.60;13.10;;;16.20;99.90;;;;;;5053800;28;20444;-61
2023/06/18 03:45:35;;;;;;;15.80;14.23;;;16.30;99.90;;;;;;5054272;28;20468;-60
2023/06/18 03:48:02;;;;;;;15.00;13.50;;;16.30;99.90;;;;;;5053406;28;20811;-60
2023/06/18 03:50:29;;;;;;;17.03;14.07;;;16.40;99.90;;;;;;5053622;28;20440;-58
2023/06/18 03:52:55;;;;;;;13.73;12.33;;;16.50;99.90;;;;;;5053325;28;20444;-61
2023/06/18 03:55:22;;;;;;;14.13;12.83;;;16.80;99.90;;;;;;5054025;28;20468;-60
2023/06/18 03:57:51;;;;;;;14.60;13.17;;;17.30;99.90;;;;;;5053004;28;20855;-60
2023/06/18 04:00:18;;;;;;;13.90;12.40;;;17.80;99.90;;;;;;5053060;28;20455;-60
2023/06/18 04:02:44;;;;;;;14.23;12.83;;;18.30;99.90;;;;;;5052995;28;20514;-61
2023/06/18 04:05:12;;;;;;;14.80;11.60;;;18.80;99.90;;;;;;5052916;28;20989;-61
2023/06/18 04:07:39;;;;;;;13.53;12.13;;;19.30;99.90;;;;;;5053545;28;20444;-60
2023/06/18 04:11:50;;;;;;;14.20;12.90;;;19.90;99.90;;;;;;5091380;28;20553;-60
2023/06/18 04:14:18;;;;;;;14.33;12.93;;;20.30;99.90;;;;;;5091500;28;20463;-60
2023/06/18 04:16:45;;;;;;;14.00;12.53;;;20.60;98.80;;;;;;5091066;28;20438;-61
2023/06/18 04:19:12;;;;;;;13.50;12.20;;;20.60;97.50;;;;;;5090481;28;20443;-60
2023/06/18 04:21:39;;;;;;;15.13;12.20;;;20.60;96.40;;;;;;5090292;28;20949;-60
2023/06/18 04:24:06;;;;;;;13.80;12.50;;;20.60;95.50;;;;;;5090066;28;20464;-60
2023/06/18 04:26:33;;;;;;;13.23;11.83;;;20.60;94.70;;;;;;5090364;28;20444;-60
2023/06/18 04:29:01;;;;;;;13.80;12.43;;;20.70;94.40;;;;;;5090284;28;20442;-60
2023/06/18 04:31:27;;;;;;;14.70;13.30;;;20.80;93.70;;;;;;5089883;28;20473;-60
2023/06/18 04:33:54;;;;;;;14.40;13.00;;;21.00;92.60;;;;;;5089805;28;20473;-60
2023/06/18 04:36:21;;;;;;;14.27;13.07;;;21.20;91.30;;;;;;5089673;28;20449;-60
2023/06/18 04:38:48;;;;;;;13.20;11.90;;;21.40;90.30;;;;;;5090308;28;20446;-58
2023/06/18 04:41:14;;;;;;;15.83;14.23;;;21.60;88.80;;;;;;5090288;28;20449;-59
2023/06/18 04:43:41;;;;;;;14.30;13.00;;;21.80;86.40;;;;;;5089973;28;20561;-59
2023/06/18 04:46:09;;;;;;;14.77;13.13;;;22.00;84.10;;;;;;5090198;28;20530;-59
2023/06/18 04:48:36;;;;;;;15.30;13.70;;;22.20;81.80;;;;;;5090190;28;20449;-59
2023/06/18 04:51:03;;;;;;;13.83;12.53;;;22.30;79.70;;;;;;5089746;28;20479;-59
2023/06/18 04:53:30;;;;;;;14.33;13.03;;;22.30;78.30;;;;;;5089442;28;20812;-59
2023/06/18 04:55:57;;;;;;;15.17;13.63;;;22.30;77.90;;;;;;5089627;28;20474;-60
2023/06/18 04:58:24;;;;;;;13.50;12.20;;;22.40;77.10;;;;;;5090258;28;20514;-57
2023/06/18 05:00:52;;;;;;;15.00;13.20;;;22.60;75.70;;;;;;5089463;28;20532;-59
2023/06/18 05:03:20;;;;;;;13.87;12.53;;;22.80;74.00;;;;;;5090105;28;20540;-60
2023/06/18 05:05:47;;;;;;;14.50;13.00;;;22.90;72.50;;;;;;5089273;28;20439;-59
2023/06/18 05:08:13;;;;;;;15.50;13.90;;;23.00;71.60;;;;;;5089218;28;20954;-60
2023/06/18 05:10:40;;;;;;;14.97;13.67;;;23.00;70.60;;;;;;5089009;28;20976;-62
2023/06/18 05:13:07;;;;;;;14.40;13.10;;;22.90;70.70;;;;;;5089014;28;20941;-61
2023/06/18 05:15:34;;;;;;;14.20;12.77;;;22.90;70.50;;;;;;5089001;28;20821;-61
2023/06/18 05:18:00;;;;;;;15.00;13.50;;;22.90;70.00;;;;;;5088913;28;20944;-60
2023/06/18 05:20:29;;;;;;;13.27;12.17;;;22.90;69.80;;;;;;5089254;28;20448;-60
2023/06/18 05:22:55;;;;;;;13.57;12.27;;;23.20;69.50;;;;;;5078230;28;20445;-60
2023/06/18 05:25:22;;;;;;;13.97;12.53;;;23.50;68.20;;;;;;5075575;28;20467;-61
2023/06/18 05:27:49;;;;;;;16.13;13.53;;;23.70;66.80;;;;;;5075770;28;20453;-59
2023/06/18 05:30:16;;;;;;;13.73;12.43;;;24.00;65.70;;;;;;5075741;28;20491;-60
2023/06/18 05:32:43;;;;;;;13.13;11.93;;;24.20;64.40;;;;;;5075335;28;20445;-60
2023/06/18 05:35:10;;;;;;;13.73;12.53;;;24.40;63.10;;;;;;5075440;28;20469;-58
2023/06/18 05:37:38;;;;;;;12.10;11.10;;;24.60;62.00;;;;;;5075312;28;20444;-60
2023/06/18 05:40:07;;;;;;;13.83;12.43;;;24.80;61.20;;;;;;5075768;28;20818;-60
2023/06/18 05:42:34;;;;;;;12.00;11.00;;;24.80;60.40;;;;;;5075803;28;20454;-59
2023/06/18 05:45:00;;;;;;;12.10;11.10;;;24.80;60.10;;;;;;5075423;28;20462;-60
2023/06/18 05:47:27;;;;;;;11.90;10.90;;;24.80;59.90;;;;;;5075560;28;20467;-60
2023/06/18 05:49:54;;;;;;;11.93;10.93;;;24.90;59.80;;;;;;5076270;28;20446;-60
2023/06/18 05:52:21;;;;;;;13.03;11.93;;;24.90;59.50;;;;;;5075457;28;20450;-60
2023/06/18 05:54:49;;;;;;;11.93;10.77;;;24.90;59.30;;;;;;5076701;28;20838;-60
2023/06/18 05:57:15;;;;;;;13.47;12.37;;;24.90;59.40;;;;;;5076579;28;20443;-60
2023/06/18 05:59:42;;;;;;;13.13;11.40;;;24.90;59.20;;;;;;5075948;28;20971;-60
2023/06/18 06:02:10;;;;;;;12.53;11.53;;;25.00;58.90;;;;;;5076310;28;20480;-60
2023/06/18 06:04:36;;;;;;;11.97;10.63;;;24.90;58.60;;;;;;5076261;28;20470;-60
2023/06/18 06:07:04;;;;;;;12.97;11.70;;;24.80;58.50;;;;;;5076545;28;20456;-60
2023/06/18 06:09:30;;;;;;;13.37;11.97;;;24.80;58.50;;;;;;5075625;28;20452;-60
2023/06/18 06:11:58;;;;;;;12.50;11.40;;;24.70;58.30;;;;;;5075387;28;20470;-59
2023/06/18 06:14:25;;;;;;;11.60;10.50;;;24.70;58.30;;;;;;5075640;28;20474;-59
2023/06/18 06:16:57;;;;;;;11.80;10.70;;;24.70;58.10;;;;;;5075675;28;20440;-60
2023/06/18 06:19:24;;;;;;;11.20;10.10;;;24.80;57.90;;;;;;5075369;28;20438;-59
2023/06/18 06:21:51;;;;;;;12.07;10.97;;;24.80;57.60;;;;;;5075193;28;20440;-59
2023/06/18 06:24:17;;;;;;;11.90;9.63;;;24.80;57.60;;;;;;5074838;28;20474;-59
2023/06/18 06:26:44;;;;;;;11.57;10.50;;;24.70;57.40;;;;;;5074968;28;20446;-59
2023/06/18 06:29:12;;;;;;;12.10;10.90;;;24.70;57.30;;;;;;5075264;28;20528;-60
2023/06/18 06:31:39;;;;;;;11.60;10.53;;;24.70;57.30;;;;;;5074427;28;20483;-60
2023/06/18 06:34:06;;;;;;;11.50;10.50;;;24.60;57.10;;;;;;5073728;28;20472;-60
2023/06/18 06:36:33;;;;;;;10.77;9.87;;;24.50;56.90;;;;;;5074816;28;20504;-61
2023/06/18 06:39:02;;;;;;;12.00;10.90;;;24.40;56.80;;;;;;5074496;28;20449;-59
2023/06/18 06:41:28;;;;;;;10.73;9.63;;;24.30;56.70;;;;;;5074436;28;20522;-60
2023/06/18 06:43:55;;;;;;;10.10;9.20;;;24.20;56.70;;;;;;5074201;28;20462;-60
2023/06/18 06:46:23;;;;;;;10.73;9.73;;;24.10;56.80;;;;;;5073932;28;20447;-59
2023/06/18 06:48:50;;;;;;;13.20;10.23;;;24.00;56.80;;;;;;5074065;28;20450;-60
2023/06/18 06:51:17;;;;;;;11.47;9.30;;;24.00;56.90;;;;;;5073957;28;20475;-60
2023/06/18 06:53:43;;;;;;;10.37;9.37;;;24.00;56.80;;;;;;5074480;28;20474;-60
2023/06/18 06:56:10;;;;;;;9.97;8.97;;;23.90;56.70;;;;;;5074673;28;20441;-60
2023/06/18 06:58:37;;;;;;;10.90;9.80;;;23.90;56.70;;;;;;5074784;28;20449;-60
2023/06/18 07:01:04;;;;;;;9.97;9.07;;;24.00;56.60;;;;;;5074149;28;20449;-60
2023/06/18 07:03:32;;;;;;;10.17;9.23;;;24.10;56.30;;;;;;5074097;28;20941;-58
2023/06/18 07:05:59;;;;;;;10.10;9.20;;;24.10;56.00;;;;;;5074985;28;20445;-59
2023/06/18 07:08:25;;;;;;;9.50;8.60;;;24.10;55.90;;;;;;5084789;22;21024;-60
2023/06/18 07:10:52;;;;;;;9.30;8.40;;;24.20;55.80;;;;;;5034772;28;20487;-61
2023/06/18 07:13:19;;;;;;;9.77;8.87;;;24.30;55.50;;;;;;5034358;28;20449;-60
2023/06/18 07:15:45;;;;;;;10.50;9.43;;;24.30;55.00;;;;;;5034057;28;20450;-61
2023/06/18 07:18:12;;;;;;;8.97;8.07;;;24.20;54.60;;;;;;5033932;28;20466;-60
2023/06/18 07:20:40;;;;;;;8.67;7.90;;;24.20;54.60;;;;;;5034034;28;20449;-60
2023/06/18 07:23:07;;;;;;;10.83;9.73;;;24.20;54.50;;;;;;5034445;28;20454;-60
2023/06/18 07:25:34;;;;;;;9.90;8.90;;;24.30;54.40;;;;;;5034547;28;20444;-57
2023/06/18 07:28:00;;;;;;;9.40;8.60;;;24.50;54.40;;;;;;5034336;28;20972;-60
2023/06/18 07:30:27;;;;;;;9.00;8.10;;;24.60;54.10;;;;;;5034066;28;20442;-61
2023/06/18 07:32:54;;;;;;;9.27;8.10;;;24.60;53.90;;;;;;5033723;28;20473;-60
2023/06/18 07:35:21;;;;;;;9.67;8.67;;;24.60;53.70;;;;;;5034080;28;20948;-60
2023/06/18 07:37:49;;;;;;;9.23;8.33;;;24.70;53.70;;;;;;5034612;28;20467;-62
2023/06/18 07:40:16;;;;;;;9.73;8.90;;;24.80;53.60;;;;;;5033812;28;20450;-60
2023/06/18 07:42:43;;;;;;;9.50;8.50;;;24.90;53.50;;;;;;5033726;28;20443;-60
2023/06/18 07:45:10;;;;;;;9.43;8.47;;;25.10;53.30;;;;;;5033385;28;20456;-57
2023/06/18 07:47:37;;;;;;;9.80;8.90;;;25.20;53.00;;;;;;5033887;28;20454;-62
2023/06/18 07:50:07;;;;;;;9.50;8.60;;;25.30;52.90;;;;;;5034414;28;20448;-61
2023/06/18 07:52:34;;;;;;;10.30;9.37;;;25.40;52.70;;;;;;5033206;28;20620;-60
2023/06/18 07:55:02;;;;;;;9.40;8.63;;;25.40;52.50;;;;;;5032981;28;20511;-60
2023/06/18 07:57:29;;;;;;;10.20;9.23;;;25.50;52.40;;;;;;5033307;28;20443;-60
2023/06/18 07:59:55;;;;;;;9.60;8.73;;;25.60;52.10;;;;;;5033432;28;20518;-62
2023/06/18 08:02:22;;;;;;;9.63;8.83;;;25.70;51.80;;;;;;5033695;28;20441;-61
2023/06/18 08:04:49;;;;;;;10.10;9.20;;;25.90;51.60;;;;;;5033338;28;20448;-61
2023/06/18 08:07:15;;;;;;;9.00;8.20;;;25.90;51.30;;;;;;5033639;28;20459;-61
2023/06/18 08:09:42;;;;;;;10.37;9.40;;;26.00;51.00;;;;;;5033639;28;20480;-61
2023/06/18 08:12:11;;;;;;;10.77;8.20;;;26.10;50.90;;;;;;5034087;28;20485;-61
2023/06/18 08:14:38;;;;;;;9.10;8.30;;;26.10;50.70;;;;;;5033855;28;20858;-60
2023/06/18 08:17:05;;;;;;;10.80;8.60;;;26.20;50.50;;;;;;5033976;28;20446;-62
2023/06/18 08:19:32;;;;;;;8.33;7.63;;;26.30;50.10;;;;;;5033233;28;20476;-62
2023/06/18 08:21:59;;;;;;;9.33;8.43;;;26.40;50.00;;;;;;5033337;28;20457;-60
2023/06/18 08:24:25;;;;;;;9.50;8.60;;;26.50;49.70;;;;;;5036276;28;20451;-60
2023/06/18 08:26:53;;;;;;;10.63;8.33;;;26.60;49.50;;;;;;5033233;28;20456;-60
2023/06/18 08:29:22;;;;;;;9.40;8.43;;;26.60;49.30;;;;;;5032960;28;20471;-62
2023/06/18 08:31:48;;;;;;;9.80;8.90;;;26.70;49.20;;;;;;5033715;28;20578;-60
2023/06/18 08:34:15;;;;;;;8.57;7.87;;;26.70;48.90;;;;;;5033853;28;20461;-60
2023/06/18 08:36:42;;;;;;;8.70;7.70;;;26.80;48.70;;;;;;5036191;28;20455;-61
2023/06/18 08:39:09;;;;;;;9.60;8.67;;;26.90;48.30;;;;;;5034561;28;20479;-61
2023/06/18 08:41:36;;;;;;;9.57;8.57;;;27.10;48.40;;;;;;5035167;28;20440;-61
2023/06/18 08:44:03;;;;;;;10.10;8.80;;;27.00;47.60;;;;;;5034446;28;20501;-60
2023/06/18 08:46:35;;;;;;;9.10;8.20;;;26.90;47.90;;;;;;5034302;28;20450;-60
2023/06/18 08:49:02;;;;;;;7.73;7.03;;;26.70;48.10;;;;;;5034586;28;20788;-60
2023/06/18 08:51:30;;;;;;;8.10;7.37;;;26.70;48.00;;;;;;5033794;28;20484;-61
2023/06/18 08:54:03;;;;;;;9.30;8.50;;;26.80;48.40;;;;;;5034021;28;20451;-60
2023/06/18 08:56:31;;;;;;;8.40;7.60;;;26.90;47.50;;;;;;5034923;28;20437;-59
2023/06/18 08:58:58;;;;;;;9.13;8.33;;;27.00;47.30;;;;;;5038080;28;20467;-59
2023/06/18 09:01:26;;;;;;;8.40;7.70;;;27.10;47.10;;;;;;5038288;28;20443;-61
2023/06/18 09:03:55;;;;;;;9.37;7.83;;;27.10;46.90;;;;;;5036664;28;20451;-60
2023/06/18 09:06:24;;;;;;;8.37;7.47;;;27.10;46.80;;;;;;5036516;28;20457;-60
2023/06/18 09:08:51;;;;;;;8.00;7.17;;;27.10;47.40;;;;;;5036732;28;20486;-60
2023/06/18 09:11:18;;;;;;;8.63;7.77;;;27.10;46.80;;;;;;5036246;28;20474;-60
2023/06/18 09:13:45;;;;;;;10.43;7.00;;;27.30;46.40;;;;;;5036039;28;20967;-59
2023/06/18 09:16:12;;;;;;;9.53;8.40;;;27.40;45.70;;;;;;5036062;28;20946;-60
2023/06/18 09:18:39;;;;;;;9.77;8.70;;;27.30;45.70;;;;;;5036475;28;20476;-61
2023/06/18 09:21:08;;;;;;;8.80;8.00;;;27.30;45.80;;;;;;5036420;28;20997;-60
2023/06/18 09:23:35;;;;;;;9.37;8.27;;;27.20;45.70;;;;;;5037311;28;20452;-61
2023/06/18 09:26:02;;;;;;;8.00;7.20;;;27.20;45.70;;;;;;5037088;28;20459;-60
2023/06/18 09:28:29;;;;;;;8.07;7.37;;;27.30;45.60;;;;;;5036746;28;20480;-60
2023/06/18 09:30:59;;;;;;;7.97;7.17;;;27.50;45.30;;;;;;5040126;28;20447;-59
2023/06/18 09:33:32;;;;;;;8.23;7.40;;;27.70;45.00;;;;;;5038513;28;20526;-60
2023/06/18 09:36:00;;;;;;;8.97;8.17;;;27.90;44.40;;;;;;5041858;28;20456;-60
2023/06/18 09:38:35;;;;;;;9.03;8.13;;;28.00;43.90;;;;;;5035992;28;20481;-62
2023/06/18 09:41:02;;;;;;;8.53;7.80;;;28.00;43.60;;;;;;5035963;28;20523;-61
2023/06/18 09:43:36;;;;;;;8.60;7.70;;;27.90;43.90;;;;;;5035167;28;20445;-61
2023/06/18 09:46:05;;;;;;;9.10;8.13;;;27.90;44.20;;;;;;5035176;28;20445;-60
2023/06/18 09:48:34;;;;;;;8.30;7.40;;;28.00;44.10;;;;;;5035333;28;20477;-61
2023/06/18 09:51:01;;;;;;;8.00;7.30;;;28.20;44.10;;;;;;5035145;28;20444;-60
2023/06/18 09:53:28;;;;;;;8.13;7.43;;;28.20;43.80;;;;;;5035795;28;20488;-62
2023/06/18 09:56:08;;;;;;;8.07;7.27;;;28.30;43.60;;;;;;5035234;28;20526;-60
2023/06/18 09:58:41;;;;;;;8.00;7.13;;;28.50;43.50;;;;;;5035063;28;20465;-61
2023/06/18 10:01:08;;;;;;;9.23;7.93;;;28.50;43.30;;;;;;5035119;28;20459;-60
2023/06/18 10:03:35;;;;;;;9.43;8.53;;;28.40;43.40;;;;;;5035215;28;20452;-60
2023/06/18 10:06:11;;;;;;;10.80;7.73;;;28.40;43.30;;;;;;5035979;28;20452;-59
2023/06/18 10:08:39;;;;;;;9.00;8.20;;;28.30;43.40;;;;;;5034981;28;20499;-59
2023/06/18 10:11:09;;;;;;;9.60;8.63;;;28.20;43.50;;;;;;5035197;28;20451;-59
2023/06/18 10:13:41;;;;;;;8.20;7.50;;;27.90;43.30;;;;;;5035508;28;20468;-60
2023/06/18 10:16:09;;;;;;;8.73;7.90;;;27.70;44.10;;;;;;5035267;28;20450;-60
2023/06/18 10:18:36;;;;;;;9.80;8.57;;;27.60;43.50;;;;;;5035005;28;20466;-60
2023/06/18 10:21:04;;;;;;;9.43;7.90;;;27.70;43.40;;;;;;5034473;28;20448;-59
2023/06/18 10:23:33;;;;;;;8.20;7.40;;;27.80;43.30;;;;;;5035755;28;20455;-61
2023/06/18 10:26:01;;;;;;;8.73;7.67;;;27.90;43.20;;;;;;5035709;28;20456;-60
2023/06/18 10:28:31;;;;;;;7.90;7.20;;;28.00;43.00;;;;;;5036041;28;20474;-62
2023/06/18 10:30:58;;;;;;;8.10;7.40;;;28.00;42.90;;;;;;5035828;28;20497;-62
2023/06/18 10:33:26;;;;;;;8.20;7.40;;;28.20;42.60;;;;;;5034571;28;20486;-61
2023/06/18 10:35:53;;;;;;;8.70;7.80;;;28.30;42.50;;;;;;5034854;28;20464;-61
2023/06/18 10:38:20;;;;;;;9.10;8.40;;;28.30;42.30;;;;;;5034825;28;20572;-61
2023/06/18 10:40:47;;;;;;;9.20;8.33;;;28.50;42.30;;;;;;5036808;28;20454;-61
2023/06/18 10:43:14;;;;;;;8.93;8.13;;;28.70;42.00;;;;;;5036843;28;20454;-60
2023/06/18 10:48:36;;;;;;;7.10;6.50;;;28.80;41.60;;;;;;5091753;28;20604;-60
2023/06/18 10:51:17;;;;;;;8.63;7.83;;;28.80;41.50;;;;;;5090941;28;20468;-59
2023/06/18 10:53:45;;;;;;;7.83;7.13;;;28.90;41.30;;;;;;5092676;28;20476;-60
2023/06/18 10:56:15;;;;;;;7.90;7.20;;;28.80;41.10;;;;;;5091788;28;20454;-59
2023/06/18 10:58:43;;;;;;;7.17;6.57;;;28.80;41.20;;;;;;5091612;28;20518;-60
2023/06/18 11:01:25;;;;;;;8.70;8.00;;;28.90;41.10;;;;;;5091452;28;20532;-60
2023/06/18 11:04:05;;;;;;;7.87;7.07;;;29.00;40.50;;;;;;5091328;28;20466;-60
2023/06/18 11:06:32;;;;;;;7.83;6.93;;;29.10;39.90;;;;;;5091554;28;20883;-60
2023/06/18 11:08:59;;;;;;;7.50;6.63;;;29.10;39.70;;;;;;5090598;28;20469;-61
2023/06/18 11:11:26;;;;;;;7.43;6.83;;;29.00;38.70;;;;;;5090027;28;20975;-60
2023/06/18 11:13:55;;;;;;;6.43;5.83;;;29.10;38.50;;;;;;5090593;28;20523;-61
2023/06/18 11:16:22;;;;;;;6.17;5.67;;;29.10;37.90;;;;;;5090662;28;20444;-60
2023/06/18 11:18:53;;;;;;;7.47;6.27;;;29.20;37.50;;;;;;5089658;28;20465;-61
2023/06/18 11:21:22;;;;;;;8.63;7.10;;;29.20;37.40;;;;;;5090764;28;20445;-61
2023/06/18 11:23:50;;;;;;;7.03;6.33;;;29.30;37.60;;;;;;5091641;28;20819;-57
2023/06/18 11:26:17;;;;;;;9.10;6.40;;;29.30;37.60;;;;;;5091417;28;20449;-61
2023/06/18 11:28:45;;;;;;;6.20;5.70;;;29.20;37.40;;;;;;5090797;28;20468;-61
2023/06/18 11:31:13;;;;;;;7.50;6.77;;;29.30;37.10;;;;;;5090492;28;20455;-61
2023/06/18 11:33:40;;;;;;;7.77;6.07;;;29.30;36.60;;;;;;5093377;28;20446;-60
2023/06/18 11:36:08;;;;;;;6.23;5.63;;;29.30;36.30;;;;;;5090633;28;20449;-60
2023/06/18 11:38:37;;;;;;;6.07;5.57;;;29.20;36.30;;;;;;5090253;28;20462;-60
2023/06/18 11:41:04;;;;;;;7.33;6.60;;;29.40;36.30;;;;;;5090802;28;20452;-59
2023/06/18 11:43:45;;;;;;;6.50;5.90;;;29.40;35.80;;;;;;5089936;28;20447;-60
2023/06/18 11:46:26;;;;;;;6.20;5.10;;;29.50;35.80;;;;;;5090799;28;20491;-60
2023/06/18 11:48:54;;;;;;;5.10;4.60;;;29.70;35.00;;;;;;5089581;28;20532;-61
2023/06/18 11:51:21;;;;;;;4.97;4.47;;;29.70;34.30;;;;;;5089908;28;20444;-60
2023/06/18 11:53:49;;;;;;;4.43;4.03;;;29.70;33.80;;;;;;5089679;28;20453;-60
2023/06/18 11:56:16;;;;;;;3.80;3.50;;;29.90;33.20;;;;;;5089370;28;20536;-60
2023/06/18 11:58:43;;;;;;;3.17;2.87;;;30.10;31.60;;;;;;5086597;28;20457;-60
2023/06/18 12:01:11;;;;;;;3.07;2.70;;;30.30;29.80;;;;;;5085085;28;20448;-60
2023/06/18 12:03:37;;;;;;;3.80;3.50;;;30.60;28.80;;;;;;5085841;28;20824;-61
2023/06/18 12:06:13;;;;;;;2.90;2.57;;;30.90;27.80;;;;;;5084295;28;20449;-60
2023/06/18 12:08:44;;;;;;;3.97;3.60;;;31.10;27.30;;;;;;5084335;28;20483;-60
2023/06/18 12:11:23;;;;;;;3.73;3.43;;;31.30;27.10;;;;;;5084927;28;20445;-61
2023/06/18 12:13:53;;;;;;;3.80;3.50;;;31.50;27.20;;;;;;5079425;28;20449;-59
2023/06/18 12:16:28;;;;;;;6.47;4.30;;;31.70;27.10;;;;;;5077785;28;20564;-60
2023/06/18 12:19:00;;;;;;;4.50;4.10;;;32.00;27.10;;;;;;5077827;28;20462;-60
2023/06/18 12:21:27;;;;;;;7.47;4.73;;;32.40;27.00;;;;;;5078226;28;20438;-60
2023/06/18 12:23:54;;;;;;;4.60;4.20;;;32.50;27.10;;;;;;5077245;28;20449;-60
2023/06/18 12:26:23;;;;;;;5.70;5.17;;;32.50;27.40;;;;;;5076440;28;20449;-60
2023/06/18 12:28:50;;;;;;;6.00;5.40;;;32.40;27.60;;;;;;5076767;28;20560;-61
2023/06/18 12:31:17;;;;;;;5.73;5.23;;;32.30;27.90;;;;;;5076997;28;20480;-60
2023/06/18 12:33:45;;;;;;;5.33;4.83;;;32.40;28.20;;;;;;5076455;28;20931;-59
2023/06/18 12:36:12;;;;;;;6.93;6.23;;;32.40;28.50;;;;;;5076444;28;20949;-59
2023/06/18 12:38:43;;;;;;;6.47;5.23;;;32.20;28.80;;;;;;5075941;28;20470;-60
2023/06/18 12:41:10;;;;;;;5.57;5.07;;;31.90;29.30;;;;;;5075314;28;20450;-60
2023/06/18 12:43:42;;;;;;;5.40;5.00;;;31.70;29.60;;;;;;5075361;28;20479;-59